Observations for DECIMOMANNU IT-AFB, Italy (LIED)

LIED 100155Z 30019KT 9999 FEW020 13/09 Q1020 RMK FEW VIS MIN 9999 WIND THR35 /////KT WIND THR17 /////KT BLU 
LIED 100055Z 30017KT 9999 FEW020 13/09 Q1020 RMK FEW VIS MIN 9999 WIND THR35 /////KT WIND THR17 /////KT BLU 
LIED 092355Z 29014KT 9999 FEW020 14/11 Q1020 RMK FEW VIS MIN 9999 WIND THR35 /////KT WIND THR17 /////KT BLU 
LIED 092255Z 29013KT 9999 FEW020 14/11 Q1021 RMK FEW VIS MIN 9999 WIND THR35 /////KT WIND THR17 /////KT BLU 
LIED 092155Z 33015G25KT 9999 FEW020 15/11 Q1021 RMK FEW VIS MIN 9999 WIND THR35 /////KT WIND THR17 /////KT BLU  
LIED 092055Z 33026KT 9999 FEW020 SCT030 15/11 Q1020 RMK SCT VIS MIN 9999 WIND THR35 /////KT WIND THR17 /////KT BLU  
LIED 091955Z 31026KT 9999 SCT020 15/12 Q1019 RMK BKN VIS MIN 9999 WIND THR35 /////KT WIND THR17 /////KT BLU 
LIED 091855Z 33024KT 9999 SCT020 SCT030 15/13 Q1019 RMK BKN VIS MIN 9999 WIND THR35 /////KT WIND THR17 /////KT BLU  
LIED 091755Z 31023KT 9999 SCT020 SCT030 15/13 Q1019 RMK BKN VIS MIN 9999 WIND THR35 /////KT WIND THR17 /////KT BLU  
LIED 091655Z 30015KT 9999 SCT018 BKN030 15/13 Q1019 RMK OVC VIS MIN 9999 WIND THR35 /////KT WIND THR17 /////KT BLU  
LIED 091555Z 29015KT 9999 FEW020 BKN030 15/13 Q1020 RMK BKN VIS MIN 9999 WIND THR35 /////KT WIND THR17 /////KT BLU  
LIED 091455Z 29016KT 9999 FEW018 SCT040 16/13 Q1019 RMK BKN VIS MIN 9999 WIND THR35 /////KT WIND THR17 /////KT BLU  
LIED 091355Z 30017KT 9999 FEW018 SCT040 16/13 Q1019 RMK SCT VIS MIN 9999 WIND THR35 /////KT WIND THR17 /////KT BLU  
LIED 091255Z 30021KT 9999 FEW018 SCT040 16/13 Q1020 RMK SCT VIS MIN 9999 WIND THR35 /////KT WIND THR17 /////KT BLU  
LIED 091155Z 29017KT 9999 FEW018 SCT035 17/12 Q1021 RMK BKN VIS MIN 9999 WIND THR35 /////KT WIND THR17 /////KT BLU  
LIED 091055Z 29017KT 9999 FEW015 BKN035 17/12 Q1022 RMK BKN VIS MIN 9999 WIND THR35 /////KT WIND THR17 /////KT BLU  
LIED 090955Z 30014KT 9999 FEW015 SCT040 17/11 Q1022 RMK BKN VIS MIN 9999 WIND THR35 /////KT WIND THR17 /////KT BLU  
LIED 090855Z 27004KT 9999 FEW015 BKN040 15/12 Q1022 RMK BKN VIS MIN 9999 WIND THR35 /////KT WIND THR17 /////KT BLU  
LIED 090755Z 30003KT 8000 FEW010 SCT040 13/12 Q1022 RMK BKN VIS MIN 8000 WIND THR35 /////KT WIND THR17 /////KT BLU  
LIED 090655Z 31011KT 8000 FEW010 BKN030 14/11 Q1022 RMK BKN VIS MIN 8000 WIND THR35 /////KT WIND THR17 /////KT BLU  
LIED 090555Z 31015KT 8000 FEW010 SCT030 13/11 Q1021 RMK BKN VIS MIN 8000 WIND THR35 /////KT WIND THR17 /////KT BLU  
LIED 090455Z 30013KT 8000 FEW010 SCT027 13/11 Q1022 RMK BKN VIS MIN 8000 WIND THR35 /////KT WIND THR17 /////KT BLU  
LIED 090355Z 31012KT 8000 -DZ FEW010 BKN030 13/13 Q1022 RMK OVC VIS MIN 8000 WIND THR35 /////KT WIND THR17 /////KT BLU  
LIED 090255Z 31016KT 8000 FEW010 BKN030 13/11 Q1022 RMK BKN VIS MIN 8000 WIND THR35 /////KT WIND THR17 /////KT BLU  
LIED 090155Z 34009KT 9999 SCT040 12/10 Q1022 RMK SCT VIS MIN 9999 WIND THR35 /////KT WIND THR17 /////KT BLU